CYYJ/YYJ METAR and TAF weather

Enter ICAO airport designator
Station Type Date Time Source
CYYJ METAR 2018/01/22 11:23 UTC NOAA

CYYJ 221123Z 17005KT 120V200 12SM -SHRA FEW007 SCT015 BKN030 OVC095 06/04 A3002 RMK SF1SC2CU3AC2 CVCTV CLD EMBD SLP166


Station Type Date Time Source
CYYJ Decoded METAR 2018/01/22 11:23 UTC NOAA

Victoria Int. Airport, B. C., Canada (CYYJ) 48-39N 123-26W 19M
Jan 22, 2018 - 06:23 AM EST / 2018.01.22 1123 UTC
Wind: from the S (170 degrees) at 6 MPH (5 KT) (direction variable):0
Visibility: 12 mile(s):0
Sky conditions: overcast
Weather: light rain showers
Temperature: 42 F (6 C)
Dew Point: 39 F (4 C)
Relative Humidity: 86%
Pressure (altimeter): 30.02 in. Hg (1016 hPa)
ob: CYYJ 221123Z 17005KT 120V200 12SM -SHRA FEW007 SCT015 BKN030 OVC095 06/04 A3002 RMK SF1SC2CU3AC2 CVCTV CLD EMBD SLP166
cycle: 11

Station Type Date Time Source
CYYJ TAF 2018/01/22 12:39 UTC NOAA

TAF TAF CYYJ 221138Z 2212/2312 VRB03KT P6SM -SHRA FEW007 SCT015 BKN030
TEMPO 2212/2215 3SM -SHRA BR SCT007 BKN015 OVC030
FM221500 21010G20KT P6SM FEW015 SCT060
TEMPO 2215/2224 P6SM -SHRA SCT015 BKN060
FM230000 22008KT P6SM SCT030
FM230600 15008KT P6SM SCT015 BKN030
FM231000 15010G20KT P6SM -SHRA BKN015
RMK NXT FCST BY 221800Z


Example: see airport list